ADDS TAF Data INFO
IDs: Format: Raw Decoded Include METARs

Data at: 2124 UTC 19 Jan 2018

KEKN 192051Z AUTO 27007KT 10SM CLR 06/M06 A3006 RMK AO2 SLP207 T00611061 55012 TSNO

KEKN 191726Z 1918/2018 23008G18KT P6SM FEW250
  FM200900 24005KT P6SM FEW030 WS020/24040KT
  FM201300 24009G15KT P6SM SCT030